createdAt,value
2018-12-20T00:00:14.228Z,83.60
2018-12-20T00:02:42.493Z,83.33
2018-12-20T00:05:10.801Z,90.17
2018-12-20T00:07:39.213Z,94.10
2018-12-20T00:10:07.926Z,84.77
2018-12-20T00:12:36.381Z,93.30
2018-12-20T00:15:04.966Z,77.43
2018-12-20T00:17:38.707Z,74.93
2018-12-20T00:20:07.309Z,73.17
2018-12-20T00:22:35.587Z,83.00
2018-12-20T00:25:05.304Z,80.23
2018-12-20T00:27:33.634Z,74.10
2018-12-20T00:30:02.054Z,70.60
2018-12-20T00:32:30.486Z,73.73
2018-12-20T00:34:58.962Z,81.13
2018-12-20T00:37:27.430Z,79.10
2018-12-20T00:39:55.892Z,85.93
2018-12-20T00:42:24.299Z,72.03
2018-12-20T00:44:52.581Z,78.07
2018-12-20T00:47:20.899Z,75.97
2018-12-20T00:49:49.244Z,80.07
2018-12-20T00:52:17.669Z,78.47
2018-12-20T00:54:46.006Z,73.87
2018-12-20T00:57:14.427Z,75.97
2018-12-20T00:59:42.756Z,80.03
2018-12-20T01:02:11.130Z,74.37
2018-12-20T01:04:39.415Z,73.53
2018-12-20T01:07:07.873Z,70.90
2018-12-20T01:09:36.262Z,76.27
2018-12-20T01:12:04.557Z,84.20
2018-12-20T01:14:32.831Z,74.63
2018-12-20T01:17:01.105Z,69.73
2018-12-20T01:19:29.505Z,68.83
2018-12-20T01:21:57.828Z,78.67
2018-12-20T01:24:26.064Z,77.57
2018-12-20T01:26:54.398Z,70.87
2018-12-20T01:29:22.954Z,78.33
2018-12-20T01:31:51.307Z,76.17
2018-12-20T01:34:19.658Z,73.93
2018-12-20T01:36:48.002Z,83.77
2018-12-20T01:39:16.463Z,81.43
2018-12-20T01:41:45.025Z,78.60
2018-12-20T01:44:13.366Z,78.53
2018-12-20T01:46:41.848Z,84.70
2018-12-20T01:49:10.266Z,80.87
2018-12-20T01:51:38.635Z,78.60
2018-12-20T01:54:06.956Z,72.53
2018-12-20T01:56:35.569Z,82.33
2018-12-20T01:59:04.126Z,71.87
2018-12-20T02:01:32.447Z,80.13
2018-12-20T02:04:00.824Z,85.43
2018-12-20T02:06:29.202Z,82.77
2018-12-20T02:08:57.665Z,80.17
2018-12-20T02:11:25.999Z,82.70
2018-12-20T02:13:54.422Z,84.53
2018-12-20T02:16:22.874Z,82.07
2018-12-20T02:18:51.220Z,90.63
2018-12-20T02:21:19.457Z,93.07
2018-12-20T02:23:47.935Z,78.90
2018-12-20T02:26:16.232Z,89.53
2018-12-20T02:28:44.806Z,81.10
2018-12-20T02:31:13.124Z,95.43
2018-12-20T02:33:41.582Z,96.97
2018-12-20T02:36:09.897Z,90.40
2018-12-20T02:38:38.172Z,79.50
2018-12-20T02:41:06.418Z,72.87
2018-12-20T02:43:34.670Z,87.87
2018-12-20T02:46:03.221Z,84.40
2018-12-20T02:48:31.486Z,73.97
2018-12-20T02:50:59.976Z,70.47
2018-12-20T02:53:28.267Z,75.33
2018-12-20T02:55:56.700Z,79.17
2018-12-20T02:58:24.996Z,69.43
2018-12-20T03:00:53.535Z,70.00
2018-12-20T03:03:21.992Z,67.97
2018-12-20T03:05:50.373Z,83.00
2018-12-20T03:08:18.722Z,72.40
2018-12-20T03:10:47.004Z,73.63
2018-12-20T03:13:15.337Z,71.37
2018-12-20T03:15:43.657Z,74.80
2018-12-20T03:18:11.969Z,75.83
2018-12-20T03:20:40.436Z,83.10
2018-12-20T03:23:08.683Z,81.37
2018-12-20T03:25:36.938Z,68.20
2018-12-20T03:28:05.542Z,66.80
2018-12-20T03:30:33.800Z,64.83
2018-12-20T03:33:02.114Z,62.73
2018-12-20T03:35:30.502Z,71.90
2018-12-20T03:37:58.867Z,61.23
2018-12-20T03:40:27.194Z,69.33
2018-12-20T03:42:55.470Z,66.20
2018-12-20T03:45:28.697Z,65.83
2018-12-20T03:47:53.981Z,56.97
2018-12-20T03:50:22.343Z,58.83
2018-12-20T03:52:50.638Z,65.97
2018-12-20T03:55:18.850Z,74.50
2018-12-20T03:57:47.424Z,68.03
2018-12-20T04:00:15.957Z,66.40
2018-12-20T04:02:44.493Z,61.67
2018-12-20T04:05:12.789Z,61.63
2018-12-20T04:07:41.207Z,68.40
2018-12-20T04:10:09.689Z,68.30
2018-12-20T04:12:38.331Z,66.03
2018-12-20T04:15:06.699Z,62.53
2018-12-20T04:17:34.946Z,73.67
2018-12-20T04:20:03.303Z,72.73
2018-12-20T04:22:31.737Z,71.73
2018-12-20T04:25:00.116Z,69.77
2018-12-20T04:27:28.578Z,68.07
2018-12-20T04:29:56.879Z,66.40
2018-12-20T04:32:25.177Z,70.03
2018-12-20T04:34:53.476Z,62.83
2018-12-20T04:37:21.868Z,68.97
2018-12-20T04:39:50.166Z,63.40
2018-12-20T04:42:18.462Z,70.07
2018-12-20T04:44:46.779Z,62.43
2018-12-20T04:47:15.179Z,61.57
2018-12-20T04:49:43.444Z,63.57
2018-12-20T04:52:11.739Z,65.60
2018-12-20T04:54:40.043Z,66.80
2018-12-20T04:57:08.295Z,70.00
2018-12-20T04:59:36.580Z,70.70
2018-12-20T05:02:04.951Z,66.20
2018-12-20T05:04:33.246Z,72.93
2018-12-20T05:07:01.853Z,66.77
2018-12-20T05:09:30.122Z,70.17
2018-12-20T05:11:58.493Z,62.27
2018-12-20T05:14:26.857Z,58.83
2018-12-20T05:16:55.284Z,58.40
2018-12-20T05:19:23.633Z,63.30
2018-12-20T05:21:52.170Z,61.87
2018-12-20T05:24:20.695Z,73.47
2018-12-20T05:26:48.875Z,66.23
2018-12-20T05:29:17.286Z,68.43
2018-12-20T05:31:45.737Z,61.90
2018-12-20T05:34:13.938Z,52.37
2018-12-20T05:36:47.732Z,62.30
2018-12-20T05:39:15.985Z,60.60
2018-12-20T05:41:44.864Z,66.20
2018-12-20T05:44:13.130Z,62.20
2018-12-20T05:46:41.399Z,65.13
2018-12-20T05:49:09.627Z,62.87
2018-12-20T05:51:37.990Z,74.95
2018-12-20T05:54:06.610Z,67.40
2018-12-20T05:56:35.194Z,53.53
2018-12-20T05:59:03.658Z,62.37
2018-12-20T06:01:32.177Z,58.60
2018-12-20T06:04:00.389Z,50.23
2018-12-20T06:06:28.689Z,52.87
2018-12-20T06:08:56.905Z,61.60
2018-12-20T06:11:25.320Z,64.33
2018-12-20T06:13:55.217Z,59.30
2018-12-20T06:16:24.085Z,61.33
2018-12-20T06:18:52.582Z,61.20
2018-12-20T06:21:20.844Z,67.30
2018-12-20T06:23:51.410Z,65.37
2018-12-20T06:26:19.802Z,85.87
2018-12-20T06:28:47.997Z,71.90
2018-12-20T06:31:16.261Z,78.10
2018-12-20T06:33:44.518Z,69.97
2018-12-20T06:36:12.794Z,67.27
2018-12-20T06:38:41.004Z,71.63
2018-12-20T06:41:09.389Z,70.63
2018-12-20T06:43:37.577Z,65.17
2018-12-20T06:46:05.853Z,64.47
2018-12-20T06:48:34.095Z,60.63
2018-12-20T06:51:02.667Z,62.57
2018-12-20T06:53:31.002Z,65.97
2018-12-20T06:55:59.247Z,63.77
2018-12-20T06:58:27.459Z,69.07
2018-12-20T07:00:55.759Z,63.43
2018-12-20T07:03:23.963Z,62.97
2018-12-20T07:05:52.269Z,60.27
2018-12-20T07:08:20.497Z,61.57
2018-12-20T07:10:48.752Z,60.40
2018-12-20T07:13:16.974Z,61.10
2018-12-20T07:15:45.173Z,60.97
2018-12-20T07:18:13.493Z,57.47
2018-12-20T07:20:41.799Z,66.40
2018-12-20T07:23:10.316Z,58.00
2018-12-20T07:25:38.522Z,67.13
2018-12-20T07:28:06.844Z,62.27
2018-12-20T07:30:35.250Z,61.73
2018-12-20T07:33:03.586Z,54.50
2018-12-20T07:35:31.889Z,60.73
2018-12-20T07:38:00.113Z,53.30
2018-12-20T07:40:28.343Z,61.13
2018-12-20T07:42:56.655Z,56.03
2018-12-20T07:45:25.034Z,57.40
2018-12-20T07:47:53.333Z,59.57
2018-12-20T07:50:21.630Z,56.80
2018-12-20T07:52:49.963Z,59.13
2018-12-20T07:55:18.180Z,61.93
2018-12-20T07:57:46.379Z,68.63
2018-12-20T08:00:14.598Z,61.03
2018-12-20T08:02:42.910Z,65.20
2018-12-20T08:05:11.238Z,61.43
2018-12-20T08:07:39.444Z,68.63
2018-12-20T08:10:09.722Z,62.97
2018-12-20T08:12:38.033Z,61.50
2018-12-20T08:15:07.191Z,56.73
2018-12-20T08:17:35.460Z,57.13
2018-12-20T08:20:04.094Z,60.90
2018-12-20T08:22:32.453Z,60.77
2018-12-20T08:25:00.642Z,57.50
2018-12-20T08:27:28.859Z,61.13
2018-12-20T08:29:57.113Z,58.43
2018-12-20T08:32:25.346Z,62.33
2018-12-20T08:34:53.582Z,63.67
2018-12-20T08:37:21.805Z,66.67
2018-12-20T08:39:50.038Z,62.40
2018-12-20T08:42:18.281Z,58.20
2018-12-20T08:44:46.503Z,51.33
2018-12-20T08:47:15.098Z,50.57
2018-12-20T08:49:43.321Z,54.63
2018-12-20T08:52:11.517Z,53.53
2018-12-20T08:54:39.740Z,58.07
2018-12-20T08:57:07.935Z,50.33
2018-12-20T08:59:36.118Z,47.50
2018-12-20T09:02:04.347Z,49.67
2018-12-20T09:04:32.646Z,53.30
2018-12-20T09:07:00.859Z,48.53
2018-12-20T09:09:29.071Z,49.47
2018-12-20T09:11:57.254Z,52.27
2018-12-20T09:14:25.475Z,72.47
2018-12-20T09:16:53.666Z,53.47
2018-12-20T09:19:21.870Z,48.67
2018-12-20T09:21:50.067Z,48.67
2018-12-20T09:24:18.376Z,56.70
2018-12-20T09:26:46.598Z,43.47
2018-12-20T09:29:14.894Z,52.90
2018-12-20T09:31:43.090Z,52.23
2018-12-20T09:34:11.300Z,44.23
2018-12-20T09:36:39.659Z,47.33
2018-12-20T09:39:09.157Z,52.10
2018-12-20T09:41:37.430Z,52.60
2018-12-20T09:44:05.619Z,45.60
2018-12-20T09:46:33.814Z,45.40
2018-12-20T09:49:02.123Z,42.47
2018-12-20T09:51:30.357Z,54.37
2018-12-20T09:53:58.538Z,49.23
2018-12-20T09:56:26.746Z,47.77
2018-12-20T09:58:54.934Z,44.80
2018-12-20T10:01:23.150Z,43.17
2018-12-20T10:03:51.346Z,41.37
2018-12-20T10:06:19.554Z,42.33
2018-12-20T10:08:47.749Z,40.10
2018-12-20T10:11:15.958Z,43.47
2018-12-20T10:13:44.161Z,38.30
2018-12-20T10:16:12.370Z,38.33
2018-12-20T10:18:40.676Z,36.40
2018-12-20T10:21:08.901Z,35.93
2018-12-20T10:23:37.070Z,35.63
2018-12-20T10:26:05.391Z,30.27
2018-12-20T10:28:33.586Z,35.00
2018-12-20T10:31:01.819Z,37.03
2018-12-20T10:33:30.042Z,31.73
2018-12-20T10:35:58.280Z,32.13
2018-12-20T10:38:26.478Z,37.93
2018-12-20T10:40:54.704Z,31.37
2018-12-20T10:43:22.901Z,31.90
2018-12-20T10:45:51.119Z,31.47
2018-12-20T10:48:19.306Z,34.17
2018-12-20T10:50:47.539Z,31.33
2018-12-20T10:53:15.907Z,33.67
2018-12-20T10:55:44.103Z,35.90
2018-12-20T10:58:12.305Z,29.90
2018-12-20T11:00:46.040Z,33.13
2018-12-20T11:03:19.701Z,30.77
2018-12-20T11:05:53.105Z,31.23
2018-12-20T11:08:22.701Z,25.90
2018-12-20T11:10:55.344Z,26.13
2018-12-20T11:13:25.948Z,25.67
2018-12-20T11:15:54.261Z,28.90
2018-12-20T11:18:22.449Z,28.70
2018-12-20T11:20:50.690Z,26.33
2018-12-20T11:23:18.934Z,30.20
2018-12-20T11:25:47.222Z,28.40
2018-12-20T11:28:15.404Z,24.93
2018-12-20T11:30:43.728Z,23.70
2018-12-20T11:33:11.934Z,26.77
2018-12-20T11:35:40.178Z,28.03
2018-12-20T11:38:08.358Z,25.17
2018-12-20T11:40:36.573Z,25.93
2018-12-20T11:43:04.784Z,24.83
2018-12-20T11:45:32.997Z,21.67
2018-12-20T11:48:01.216Z,25.97
2018-12-20T11:50:29.484Z,24.80
2018-12-20T11:52:57.749Z,24.10
2018-12-20T11:55:25.983Z,21.83
2018-12-20T11:57:54.230Z,21.80
2018-12-20T12:00:22.468Z,20.27
2018-12-20T12:02:50.667Z,24.77
2018-12-20T12:05:18.991Z,22.17
2018-12-20T12:07:47.282Z,25.33
2018-12-20T12:10:15.489Z,19.70
2018-12-20T12:12:43.769Z,23.67
2018-12-20T12:15:12.071Z,17.73
2018-12-20T12:17:40.282Z,23.10
2018-12-20T12:20:08.660Z,22.10
2018-12-20T12:22:36.928Z,21.30
2018-12-20T12:25:06.198Z,19.90
2018-12-20T12:27:34.463Z,19.20
2018-12-20T12:30:02.785Z,16.80
2018-12-20T12:32:31.035Z,16.40
2018-12-20T12:34:59.266Z,19.93
2018-12-20T12:37:27.493Z,20.17
2018-12-20T12:39:55.732Z,20.03
2018-12-20T12:42:23.935Z,16.97
2018-12-20T12:44:52.186Z,15.33
2018-12-20T12:47:24.750Z,17.20
2018-12-20T12:49:52.982Z,16.63
2018-12-20T12:52:21.189Z,14.97
2018-12-20T12:54:49.413Z,11.40
2018-12-20T12:57:17.640Z,15.73
2018-12-20T12:59:45.970Z,13.97
2018-12-20T13:02:14.217Z,15.17
2018-12-20T13:04:42.465Z,15.73
2018-12-20T13:07:10.673Z,12.47
2018-12-20T13:09:38.903Z,10.27
2018-12-20T13:12:07.189Z,11.90
2018-12-20T13:14:35.443Z,12.73
2018-12-20T13:17:03.662Z,11.03
2018-12-20T13:19:31.897Z,10.63
2018-12-20T13:22:00.191Z,11.37
2018-12-20T13:24:28.427Z,10.67
2018-12-20T13:26:56.667Z,12.10
2018-12-20T13:29:25.082Z,14.37
2018-12-20T13:31:53.307Z,10.47
2018-12-20T13:34:21.731Z,12.97
2018-12-20T13:36:49.949Z,11.53
2018-12-20T13:39:18.187Z,11.77
2018-12-20T13:41:46.493Z,11.93
2018-12-20T13:44:14.732Z,11.97
2018-12-20T13:46:42.958Z,11.43
2018-12-20T13:49:11.209Z,14.83
2018-12-20T13:51:39.447Z,13.93
2018-12-20T13:54:07.692Z,12.00
2018-12-20T13:56:35.940Z,12.93
2018-12-20T13:59:04.371Z,14.97
2018-12-20T14:01:32.711Z,17.63
2018-12-20T14:04:01.398Z,19.60
2018-12-20T14:06:29.721Z,18.90
2018-12-20T14:08:57.950Z,16.67
2018-12-20T14:11:26.201Z,16.97
2018-12-20T14:13:54.408Z,20.00
2018-12-20T14:16:22.648Z,19.30
2018-12-20T14:18:50.890Z,20.47
2018-12-20T14:21:19.123Z,20.00
2018-12-20T14:23:47.342Z,23.00
2018-12-20T14:26:15.721Z,22.93
2018-12-20T14:28:43.941Z,22.97
2018-12-20T14:31:12.174Z,20.50
2018-12-20T14:33:40.436Z,21.77
2018-12-20T14:36:08.678Z,19.83
2018-12-20T14:38:36.901Z,16.30
2018-12-20T14:41:05.209Z,16.60
2018-12-20T14:43:33.413Z,18.03
2018-12-20T14:46:01.684Z,8.80
2018-12-20T14:48:29.870Z,8.33
2018-12-20T14:50:58.183Z,9.73
2018-12-20T14:53:26.385Z,9.50
2018-12-20T14:55:54.612Z,8.40
2018-12-20T14:58:23.061Z,9.57
2018-12-20T15:00:51.302Z,7.73
2018-12-20T15:03:19.534Z,9.27
2018-12-20T15:05:47.770Z,11.07
2018-12-20T15:08:16.008Z,11.00
2018-12-20T15:10:44.293Z,14.57
2018-12-20T15:13:12.494Z,13.73
2018-12-20T15:15:40.741Z,10.30
2018-12-20T15:18:09.074Z,16.80
2018-12-20T15:20:40.778Z,11.37
2018-12-20T15:23:07.601Z,13.27
2018-12-20T15:25:35.813Z,11.90
2018-12-20T15:28:04.104Z,10.73
2018-12-20T15:30:32.522Z,11.40
2018-12-20T15:33:00.852Z,11.77
2018-12-20T15:35:29.090Z,10.87
2018-12-20T15:37:57.406Z,10.40
2018-12-20T15:40:25.598Z,9.17
2018-12-20T15:42:53.948Z,9.60
2018-12-20T15:45:23.041Z,10.13
2018-12-20T15:47:51.255Z,9.47
2018-12-20T15:50:19.478Z,12.83
2018-12-20T15:52:47.691Z,11.60
2018-12-20T15:55:15.958Z,15.70
2018-12-20T15:57:44.178Z,10.03
2018-12-20T16:00:12.461Z,9.47
2018-12-20T16:02:40.857Z,8.63
2018-12-20T16:05:09.237Z,12.57
2018-12-20T16:07:37.581Z,11.53
2018-12-20T16:10:07.741Z,12.07
2018-12-20T16:12:35.969Z,10.10
2018-12-20T16:15:05.114Z,12.83
2018-12-20T16:17:33.354Z,11.57
2018-12-20T16:20:01.742Z,10.73
2018-12-20T16:22:30.137Z,11.17
2018-12-20T16:24:58.333Z,10.63
2018-12-20T16:27:27.027Z,10.73
2018-12-20T16:29:55.369Z,14.50
2018-12-20T16:32:23.585Z,15.40
2018-12-20T16:34:51.829Z,12.33
2018-12-20T16:37:20.007Z,17.83
2018-12-20T16:39:48.211Z,16.03
2018-12-20T16:42:16.427Z,13.17
2018-12-20T16:44:44.638Z,14.50
2018-12-20T16:47:12.820Z,15.40
2018-12-20T16:49:41.041Z,13.57
2018-12-20T16:52:09.297Z,17.90
2018-12-20T16:54:37.474Z,17.13
2018-12-20T16:57:05.635Z,12.87
2018-12-20T16:59:33.812Z,16.10
2018-12-20T17:02:01.985Z,14.60
2018-12-20T17:04:30.449Z,14.73
2018-12-20T17:06:58.611Z,14.43
2018-12-20T17:09:26.772Z,19.00
2018-12-20T17:11:55.049Z,17.80
2018-12-20T17:14:23.400Z,20.73
2018-12-20T17:16:51.669Z,22.20
2018-12-20T17:19:22.311Z,17.13
2018-12-20T17:21:50.020Z,18.73
2018-12-20T17:24:18.271Z,16.70
2018-12-20T17:26:46.523Z,15.80
2018-12-20T17:29:14.729Z,15.17
2018-12-20T17:31:43.041Z,13.27
2018-12-20T17:34:11.345Z,13.10
2018-12-20T17:36:39.766Z,14.70
2018-12-20T17:39:08.470Z,13.57
2018-12-20T17:41:36.695Z,15.40
2018-12-20T17:44:05.597Z,13.63
2018-12-20T17:46:33.837Z,16.47
2018-12-20T17:49:02.046Z,11.33
2018-12-20T17:51:30.358Z,12.33
2018-12-20T17:53:58.573Z,14.13
2018-12-20T17:56:26.794Z,12.23
2018-12-20T17:58:54.985Z,13.70
2018-12-20T18:01:23.471Z,13.37
2018-12-20T18:03:51.883Z,12.77
2018-12-20T18:06:20.105Z,14.33
2018-12-20T18:08:48.310Z,14.70
2018-12-20T18:11:16.554Z,14.53
2018-12-20T18:13:46.770Z,12.20
2018-12-20T18:16:14.947Z,12.57
2018-12-20T18:18:43.153Z,14.50
2018-12-20T18:21:11.360Z,14.83
2018-12-20T18:23:39.662Z,16.60
2018-12-20T18:26:08.038Z,15.70
2018-12-20T18:28:36.255Z,13.30
2018-12-20T18:31:04.620Z,14.30
2018-12-20T18:33:32.911Z,12.60
2018-12-20T18:36:01.252Z,12.67
2018-12-20T18:38:29.479Z,13.23
2018-12-20T18:40:57.758Z,10.33
2018-12-20T18:43:26.604Z,12.70
2018-12-20T18:45:54.810Z,10.67
2018-12-20T18:48:23.125Z,10.53
2018-12-20T18:50:51.420Z,13.07
2018-12-20T18:53:19.628Z,10.33
2018-12-20T18:55:47.835Z,11.03
2018-12-20T18:58:16.018Z,11.80
2018-12-20T19:00:44.334Z,9.33
2018-12-20T19:03:12.582Z,10.73
2018-12-20T19:05:40.850Z,9.30
2018-12-20T19:08:09.049Z,11.20
2018-12-20T19:10:37.324Z,13.43
2018-12-20T19:13:05.523Z,8.50
2018-12-20T19:15:33.823Z,13.23
2018-12-20T19:18:02.036Z,10.60
2018-12-20T19:20:30.245Z,12.07
2018-12-20T19:22:58.462Z,8.10
2018-12-20T19:25:27.087Z,12.27
2018-12-20T19:27:55.397Z,12.20
2018-12-20T19:30:23.700Z,10.30
2018-12-20T19:32:51.901Z,8.87
2018-12-20T19:35:20.091Z,11.50
2018-12-20T19:37:48.285Z,10.00
2018-12-20T19:40:16.525Z,11.97
2018-12-20T19:42:44.761Z,11.23
2018-12-20T19:45:12.956Z,12.27
2018-12-20T19:47:41.159Z,10.03
2018-12-20T19:50:10.434Z,18.33
2018-12-20T19:52:38.674Z,14.37
2018-12-20T19:55:07.185Z,15.80
2018-12-20T19:57:35.708Z,11.13
2018-12-20T20:00:06.045Z,11.87
2018-12-20T20:02:34.525Z,18.40
2018-12-20T20:05:03.154Z,16.47
2018-12-20T20:07:31.378Z,12.10
2018-12-20T20:09:59.678Z,12.73
2018-12-20T20:12:27.903Z,13.33
2018-12-20T20:14:56.099Z,13.00
2018-12-20T20:17:24.408Z,11.87
2018-12-20T20:19:59.575Z,16.93
2018-12-20T20:22:22.793Z,9.67
2018-12-20T20:24:50.999Z,12.77
2018-12-20T20:27:19.189Z,10.47
2018-12-20T20:29:47.373Z,8.27
2018-12-20T20:32:15.552Z,9.47
2018-12-20T20:34:44.245Z,11.17
2018-12-20T20:37:12.424Z,11.20
2018-12-20T20:39:40.608Z,8.23
2018-12-20T20:42:08.870Z,6.33
2018-12-20T20:44:37.052Z,11.03
2018-12-20T20:47:05.235Z,8.87
2018-12-20T20:49:37.335Z,9.23
2018-12-20T20:52:05.598Z,8.30
2018-12-20T20:54:33.752Z,7.57
2018-12-20T20:57:01.945Z,11.10
2018-12-20T20:59:30.101Z,6.60
2018-12-20T21:01:58.367Z,8.93
2018-12-20T21:04:26.664Z,8.50
2018-12-20T21:06:54.890Z,10.63
2018-12-20T21:09:23.147Z,11.73
2018-12-20T21:11:51.420Z,15.60
2018-12-20T21:14:19.644Z,16.63
2018-12-20T21:16:47.824Z,16.67
2018-12-20T21:19:16.016Z,20.17
2018-12-20T21:21:44.255Z,18.13
2018-12-20T21:24:12.520Z,19.93
2018-12-20T21:26:40.751Z,11.03
2018-12-20T21:29:09.558Z,10.17
2018-12-20T21:31:38.431Z,9.83
2018-12-20T21:34:06.598Z,7.63
2018-12-20T21:36:34.816Z,9.73
2018-12-20T21:39:04.795Z,9.03
2018-12-20T21:41:32.952Z,8.73
2018-12-20T21:44:01.211Z,9.53
2018-12-20T21:46:29.500Z,7.80
2018-12-20T21:48:57.695Z,9.40
2018-12-20T21:51:25.924Z,7.77
2018-12-20T21:53:54.976Z,8.03
2018-12-20T21:56:23.480Z,10.30
2018-12-20T21:58:51.703Z,7.90
2018-12-20T22:01:20.040Z,6.93
2018-12-20T22:03:48.238Z,12.27
2018-12-20T22:06:16.442Z,7.87
2018-12-20T22:08:44.736Z,8.23
2018-12-20T22:11:12.901Z,6.97
2018-12-20T22:13:41.080Z,8.17
2018-12-20T22:16:09.248Z,5.00
2018-12-20T22:18:37.429Z,8.37
2018-12-20T22:21:05.584Z,6.67
2018-12-20T22:23:33.853Z,6.23
2018-12-20T22:26:02.018Z,6.17
2018-12-20T22:28:30.216Z,7.93
2018-12-20T22:30:58.456Z,5.63
2018-12-20T22:33:26.653Z,6.47
2018-12-20T22:35:54.870Z,4.27
2018-12-20T22:38:23.048Z,5.97
2018-12-20T22:40:51.244Z,5.30
2018-12-20T22:43:19.435Z,6.97
2018-12-20T22:45:47.632Z,4.67
2018-12-20T22:48:15.870Z,4.87
2018-12-20T22:50:44.032Z,4.87
2018-12-20T22:53:12.600Z,6.60
2018-12-20T22:55:41.021Z,4.93
2018-12-20T22:58:09.304Z,6.03
2018-12-20T23:00:37.608Z,5.23
2018-12-20T23:03:05.912Z,4.37
2018-12-20T23:05:34.176Z,5.13
2018-12-20T23:08:02.349Z,3.90
2018-12-20T23:10:30.613Z,6.37
2018-12-20T23:12:58.797Z,5.80
2018-12-20T23:15:27.070Z,5.50
2018-12-20T23:17:55.248Z,4.40
2018-12-20T23:20:23.439Z,3.57
2018-12-20T23:22:51.622Z,2.97
2018-12-20T23:25:19.884Z,4.67
2018-12-20T23:27:48.077Z,5.33
2018-12-20T23:30:16.264Z,4.17
2018-12-20T23:32:44.461Z,4.17
2018-12-20T23:35:12.667Z,5.53
2018-12-20T23:37:40.854Z,3.93
2018-12-20T23:40:09.230Z,3.53
2018-12-20T23:42:37.477Z,3.53
2018-12-20T23:45:05.765Z,8.23
2018-12-20T23:47:33.924Z,3.23
2018-12-20T23:50:02.160Z,4.70
2018-12-20T23:52:30.345Z,2.97
2018-12-20T23:54:58.541Z,4.03
2018-12-20T23:57:26.795Z,11.30
2018-12-20T23:59:55.081Z,3.77
